Time;durP1;ratioP1;P1;durP2;ratioP2;P2;SDS_P1;SDS_P2;PMS_P1;PMS_P2;Temp;Humidity;BMP_temperature;BMP_pressure;BME280_temperature;BME280_humidity;BME280_pressure;Samples;Min_cycle;Max_cycle;Signal;HPM_P1;HPM_P2
2020/12/05 05:17:49;;;;;;;5.85;4.03;;;2.30;99.90;;;;;;5869327;23;21090;-72
2020/12/05 05:20:20;;;;;;;5.50;3.80;;;2.30;99.90;;;;;;4875198;29;20063;-75
2020/12/05 05:22:46;;;;;;;4.43;3.85;;;2.40;99.90;;;;;;4880777;29;20064;-76
2020/12/05 05:25:12;;;;;;;5.55;4.00;;;2.40;99.90;;;;;;4880653;29;20037;-76
2020/12/05 05:27:38;;;;;;;7.93;4.38;;;2.40;99.90;;;;;;4880352;29;20509;-75
2020/12/05 05:30:14;;;;;;;6.65;4.15;;;2.40;99.90;;;;;;4880463;29;20111;-75
2020/12/05 05:32:47;;;;;;;7.50;4.47;;;2.30;99.90;;;;;;4880442;29;20036;-74
2020/12/05 05:35:15;;;;;;;6.55;4.55;;;2.30;99.90;;;;;;4880217;29;20021;-72
2020/12/05 05:37:42;;;;;;;6.60;4.10;;;2.30;99.90;;;;;;4880631;29;20032;-72
2020/12/05 05:40:11;;;;;;;8.27;4.88;;;2.30;99.90;;;;;;4880426;29;20033;-71
2020/12/05 05:42:41;;;;;;;6.13;4.15;;;2.30;99.90;;;;;;4880543;29;20060;-72
2020/12/05 05:45:27;;;;;;;12.15;4.85;;;2.50;99.90;;;;;;4880685;29;20041;-72
2020/12/05 05:48:00;;;;;;;7.65;4.30;;;2.50;99.90;;;;;;4880331;29;20187;-71
2020/12/05 05:50:34;;;;;;;7.65;5.13;;;2.40;99.90;;;;;;4879946;29;20080;-70
2020/12/05 05:53:05;;;;;;;7.43;5.00;;;2.30;99.90;;;;;;4874576;29;20408;-74
2020/12/05 05:55:48;;;;;;;8.50;5.32;;;2.30;99.90;;;;;;4877479;29;20032;-74
2020/12/05 05:58:19;;;;;;;7.22;4.80;;;2.30;99.90;;;;;;4879069;29;20021;-74
2020/12/05 06:00:47;;;;;;;8.00;5.40;;;2.30;99.90;;;;;;4879465;29;20032;-75
2020/12/05 06:03:24;;;;;;;7.32;5.10;;;2.30;99.90;;;;;;4878093;29;20117;-74
2020/12/05 06:05:55;;;;;;;7.90;5.28;;;2.30;99.90;;;;;;4873835;29;20084;-75
2020/12/05 06:08:26;;;;;;;8.15;5.25;;;2.30;99.90;;;;;;4873713;29;20073;-74
2020/12/05 06:10:58;;;;;;;;;;;2.30;99.90;;;;;;4879651;29;20500;-74
2020/12/05 06:13:32;;;;;;;8.18;4.07;;;2.30;99.90;;;;;;4874287;29;19946;-74
2020/12/05 06:16:00;;;;;;;13.75;5.38;;;2.40;99.90;;;;;;4866695;29;20056;-74
2020/12/05 06:18:26;;;;;;;7.35;5.25;;;2.40;99.90;;;;;;4874755;29;20068;-74
2020/12/05 06:20:52;;;;;;;8.77;4.93;;;2.50;99.90;;;;;;4871243;29;20033;-75
2020/12/05 06:23:21;;;;;;;7.30;4.72;;;2.50;99.90;;;;;;4872918;29;20089;-75
2020/12/05 06:25:54;;;;;;;20.08;5.38;;;2.60;99.90;;;;;;4875062;29;20392;-76
2020/12/05 06:28:22;;;;;;;9.25;5.53;;;2.60;99.90;;;;;;4868148;29;20416;-76
2020/12/05 06:30:49;;;;;;;21.20;6.10;;;2.60;99.90;;;;;;4878815;29;20093;-75
2020/12/05 06:33:50;;;;;;;13.25;5.88;;;2.60;99.90;;;;;;4879220;29;20025;-73
2020/12/05 06:36:39;;;;;;;9.07;5.20;;;2.60;99.90;;;;;;4804577;29;20501;-74
2020/12/05 06:39:17;;;;;;;22.67;6.25;;;2.60;99.90;;;;;;4860918;29;20032;-74
2020/12/05 06:41:46;;;;;;;11.07;5.85;;;2.70;99.90;;;;;;4879214;29;20503;-74
2020/12/05 06:44:17;;;;;;;11.38;5.63;;;2.70;99.90;;;;;;4879046;29;20431;-74
2020/12/05 06:47:05;;;;;;;15.82;5.47;;;2.70;99.90;;;;;;4878881;29;20025;-74
2020/12/05 06:49:37;;;;;;;11.25;5.88;;;2.70;99.90;;;;;;4878897;29;20548;-74
2020/12/05 06:52:21;;;;;;;19.77;6.07;;;2.60;99.90;;;;;;4867199;29;20492;-74
2020/12/05 06:54:57;;;;;;;9.68;5.55;;;2.60;99.90;;;;;;4878962;29;20025;-74
2020/12/05 06:57:28;;;;;;;17.35;5.75;;;2.60;99.90;;;;;;4873314;29;20037;-75
2020/12/05 07:00:10;;;;;;;;;;;2.60;99.90;;;;;;4872913;29;20029;-76
2020/12/05 07:02:36;;;;;;;9.80;5.32;;;2.60;99.90;;;;;;4866510;29;19956;-75
2020/12/05 07:05:20;;;;;;;8.48;5.35;;;2.60;99.90;;;;;;4878707;29;20497;-76
2020/12/05 07:07:50;;;;;;;9.80;5.57;;;2.60;99.90;;;;;;4867250;29;20104;-77
2020/12/05 07:10:21;;;;;;;9.45;6.05;;;2.60;99.90;;;;;;4878356;29;20040;-78
2020/12/05 07:12:47;;;;;;;8.93;5.43;;;2.70;99.90;;;;;;4878597;29;20037;-78
2020/12/05 07:15:27;;;;;;;8.85;5.55;;;2.70;99.90;;;;;;4878649;29;20089;-72
2020/12/05 07:17:54;;;;;;;7.32;3.95;;;2.80;99.90;;;;;;4866090;29;20108;-75
2020/12/05 07:20:20;;;;;;;12.32;5.78;;;3.50;99.90;;;;;;4867791;29;20037;-76
2020/12/05 07:22:49;;;;;;;8.45;4.93;;;3.80;99.90;;;;;;4877350;29;20033;-73
2020/12/05 07:25:15;;;;;;;8.43;5.15;;;3.40;99.90;;;;;;4877749;29;20041;-73
2020/12/05 07:27:42;;;;;;;9.15;5.75;;;3.10;99.90;;;;;;4875660;29;20542;-75
2020/12/05 07:30:08;;;;;;;9.85;5.93;;;3.00;99.90;;;;;;4873145;29;20025;-76
2020/12/05 07:32:35;;;;;;;8.52;5.88;;;2.90;99.90;;;;;;4870230;29;20908;-71
2020/12/05 07:35:10;;;;;;;12.40;6.25;;;2.80;99.90;;;;;;4877617;29;20143;-73
2020/12/05 07:37:36;;;;;;;10.45;6.28;;;2.70;99.90;;;;;;4877632;29;20048;-72
2020/12/05 07:40:04;;;;;;;10.60;5.68;;;2.60;99.90;;;;;;4877005;29;20584;-70
2020/12/05 07:42:41;;;;;;;12.68;6.25;;;2.70;99.90;;;;;;4874725;29;20025;-71
2020/12/05 07:45:13;;;;;;;9.68;5.78;;;2.70;99.90;;;;;;4877331;29;20103;-72
2020/12/05 07:47:40;;;;;;;9.02;5.63;;;2.60;99.90;;;;;;4874857;29;20473;-72
2020/12/05 07:50:08;;;;;;;8.35;5.43;;;2.60;99.90;;;;;;4864719;29;20038;-77
2020/12/05 07:52:34;;;;;;;11.73;6.38;;;2.60;99.90;;;;;;4877804;29;20021;-76
2020/12/05 07:55:02;;;;;;;9.98;6.10;;;2.50;99.90;;;;;;4867381;29;20044;-76
2020/12/05 07:57:33;;;;;;;12.50;6.28;;;2.40;99.90;;;;;;4873455;29;20045;-76
2020/12/05 08:00:15;;;;;;;10.88;6.88;;;2.40;99.90;;;;;;4865176;29;20036;-75
2020/12/05 08:03:02;;;;;;;10.10;6.30;;;2.40;99.90;;;;;;4876733;29;20032;-85
2020/12/05 08:05:43;;;;;;;9.05;6.03;;;2.50;99.90;;;;;;4869128;29;20069;-82
2020/12/05 08:08:11;;;;;;;9.75;5.03;;;2.50;99.90;;;;;;4872156;29;20578;-81
2020/12/05 08:10:37;;;;;;;10.55;6.05;;;2.60;99.90;;;;;;4877908;29;20084;-82
2020/12/05 08:13:19;;;;;;;9.75;5.72;;;2.80;99.90;;;;;;4878000;29;20429;-80
2020/12/05 08:15:58;;;;;;;9.90;5.28;;;2.90;99.90;;;;;;4867172;29;20112;-74
2020/12/05 08:18:26;;;;;;;10.52;5.85;;;2.90;99.90;;;;;;4876833;29;20045;-74
2020/12/05 08:20:53;;;;;;;7.50;4.88;;;2.90;99.90;;;;;;4870979;29;20497;-74
2020/12/05 08:23:30;;;;;;;8.73;5.43;;;2.90;99.90;;;;;;4866162;29;20116;-74
2020/12/05 08:26:07;;;;;;;9.70;6.13;;;2.90;99.90;;;;;;4876926;29;20032;-73
2020/12/05 08:28:38;;;;;;;9.25;5.30;;;2.90;99.90;;;;;;4877136;29;20040;-72
2020/12/05 08:31:07;;;;;;;10.32;5.72;;;2.90;99.90;;;;;;4875275;29;20025;-74
2020/12/05 08:33:49;;;;;;;12.63;5.40;;;2.80;99.90;;;;;;4877597;29;20466;-73
2020/12/05 08:36:40;;;;;;;9.60;5.68;;;2.80;99.90;;;;;;4877719;29;20031;-73
2020/12/05 08:39:08;;;;;;;7.57;4.57;;;2.80;99.90;;;;;;4876394;29;20053;-74
2020/12/05 08:41:53;;;;;;;6.88;4.55;;;3.00;99.90;;;;;;4881362;29;20025;-74
2020/12/05 08:44:21;;;;;;;8.02;4.88;;;3.20;99.90;;;;;;4878780;29;20037;-74
2020/12/05 08:47:02;;;;;;;11.88;5.00;;;3.20;99.90;;;;;;4881083;29;20029;-73
2020/12/05 08:49:28;;;;;;;5.18;4.30;;;3.20;99.90;;;;;;4879668;29;20041;-75
2020/12/05 08:51:59;;;;;;;7.22;4.03;;;3.20;99.90;;;;;;4879851;29;20024;-75
2020/12/05 08:54:24;;;;;;;;;;;3.10;99.90;;;;;;4873820;29;20393;-73
2020/12/05 08:57:08;;;;;;;4.57;3.70;;;3.00;99.90;;;;;;4881830;29;19907;-73
2020/12/05 08:59:36;;;;;;;7.28;3.75;;;2.90;99.90;;;;;;4881009;29;20017;-73
2020/12/05 09:02:02;;;;;;;4.63;3.42;;;2.80;99.90;;;;;;4881588;29;20431;-73
2020/12/05 09:04:38;;;;;;;4.93;3.63;;;2.80;99.90;;;;;;4881115;29;20573;-74
2020/12/05 09:07:11;;;;;;;5.68;3.25;;;2.80;99.90;;;;;;4878341;29;20407;-74
2020/12/05 09:09:44;;;;;;;3.83;3.22;;;2.70;99.90;;;;;;4885402;29;20040;-74
2020/12/05 09:12:14;;;;;;;5.38;3.42;;;2.60;99.90;;;;;;4894852;29;20499;-73
2020/12/05 09:14:41;;;;;;;5.80;3.70;;;2.50;99.90;;;;;;4884297;29;20081;-73
2020/12/05 09:17:24;;;;;;;4.47;3.38;;;2.50;99.90;;;;;;4887270;29;20272;-74
2020/12/05 09:19:51;;;;;;;8.10;3.90;;;2.50;99.90;;;;;;4868080;29;20127;-74
2020/12/05 09:22:33;;;;;;;5.18;3.78;;;2.40;99.90;;;;;;4877223;29;20068;-76
2020/12/05 09:25:00;;;;;;;6.35;3.90;;;2.40;99.90;;;;;;4881098;29;20036;-75
2020/12/05 09:27:41;;;;;;;7.57;5.25;;;2.70;99.90;;;;;;4880889;29;20380;-75
2020/12/05 09:30:13;;;;;;;7.75;5.35;;;2.70;99.90;;;;;;4880911;29;20037;-75
2020/12/05 09:32:40;;;;;;;9.95;5.85;;;2.50;99.90;;;;;;4881047;29;20034;-75
2020/12/05 09:35:07;;;;;;;6.00;4.90;;;2.40;99.90;;;;;;4880943;29;20489;-75
2020/12/05 09:37:32;;;;;;;7.13;4.38;;;2.30;99.90;;;;;;4880744;29;20025;-75
2020/12/05 09:39:58;;;;;;;7.15;4.10;;;2.20;99.90;;;;;;4880787;29;20025;-75
2020/12/05 09:42:25;;;;;;;6.90;4.63;;;2.20;99.90;;;;;;4881076;29;20383;-78
2020/12/05 09:44:51;;;;;;;6.65;4.15;;;2.20;99.90;;;;;;4880814;29;20077;-76
2020/12/05 09:47:17;;;;;;;7.82;4.20;;;2.20;99.90;;;;;;4881054;29;20033;-76
2020/12/05 09:49:42;;;;;;;6.20;4.15;;;2.20;99.90;;;;;;4880525;29;20048;-76
2020/12/05 09:52:08;;;;;;;6.15;4.03;;;2.20;99.90;;;;;;4880605;29;20025;-76
2020/12/05 09:54:37;;;;;;;6.53;4.22;;;2.20;99.90;;;;;;4880630;29;20029;-76
2020/12/05 09:57:06;;;;;;;6.25;4.10;;;2.30;99.90;;;;;;4880048;29;20451;-76
2020/12/05 09:59:32;;;;;;;6.07;3.88;;;2.30;99.90;;;;;;4880270;29;20061;-76
2020/12/05 10:01:58;;;;;;;8.73;4.65;;;2.30;99.90;;;;;;4880061;29;20088;-76
2020/12/05 10:04:25;;;;;;;5.28;3.97;;;2.30;99.90;;;;;;4879668;29;20037;-76
2020/12/05 10:06:51;;;;;;;6.15;4.22;;;2.30;99.90;;;;;;4880517;29;20021;-76
2020/12/05 10:09:16;;;;;;;6.25;3.95;;;2.30;99.90;;;;;;4880138;29;20028;-76
2020/12/05 10:11:42;;;;;;;9.05;4.30;;;2.40;99.90;;;;;;4879915;29;20025;-76
2020/12/05 10:14:08;;;;;;;7.38;3.50;;;2.40;99.90;;;;;;4879838;29;20040;-76
2020/12/05 10:16:34;;;;;;;7.15;4.22;;;2.80;99.90;;;;;;4881423;29;20065;-74
2020/12/05 10:19:01;;;;;;;9.32;4.10;;;3.40;99.90;;;;;;4880918;29;20164;-75
2020/12/05 10:21:27;;;;;;;6.07;3.90;;;3.30;99.90;;;;;;4879897;29;20029;-75
2020/12/05 10:23:53;;;;;;;7.68;3.80;;;3.10;99.90;;;;;;4879991;29;20397;-75
2020/12/05 10:26:19;;;;;;;5.78;3.60;;;2.90;99.90;;;;;;4880164;29;20032;-76
2020/12/05 10:28:44;;;;;;;5.22;3.70;;;2.80;99.90;;;;;;4879193;29;20033;-77
2020/12/05 10:31:10;;;;;;;5.80;3.80;;;2.70;99.90;;;;;;4879598;29;20023;-76
2020/12/05 10:33:36;;;;;;;6.68;3.88;;;2.70;99.90;;;;;;4878794;29;20500;-77
2020/12/05 10:36:02;;;;;;;5.55;3.72;;;2.60;99.90;;;;;;4879488;29;20025;-77
2020/12/05 10:38:27;;;;;;;4.78;3.67;;;2.60;99.90;;;;;;4878825;29;20065;-75
2020/12/05 10:40:55;;;;;;;7.13;3.60;;;2.60;99.90;;;;;;4879448;29;20382;-75
2020/12/05 10:43:20;;;;;;;7.57;3.60;;;2.60;99.90;;;;;;4879275;29;20051;-74
2020/12/05 10:45:46;;;;;;;8.00;3.67;;;2.60;99.90;;;;;;4879248;29;20469;-74
2020/12/05 10:48:12;;;;;;;4.95;3.42;;;2.60;99.90;;;;;;4878762;29;20497;-79
2020/12/05 10:50:38;;;;;;;4.95;3.15;;;2.60;99.90;;;;;;4879364;29;20036;-81
2020/12/05 10:53:03;;;;;;;5.30;3.65;;;2.50;99.90;;;;;;4879466;29;20029;-84
2020/12/05 10:55:29;;;;;;;4.30;3.20;;;2.50;99.90;;;;;;4879251;29;20025;-79
2020/12/05 10:57:56;;;;;;;4.28;3.60;;;2.50;99.90;;;;;;4879731;29;20034;-80
2020/12/05 11:00:25;;;;;;;5.57;3.20;;;2.50;99.90;;;;;;4879396;29;20401;-80
2020/12/05 11:02:51;;;;;;;4.80;3.38;;;2.50;99.90;;;;;;4878746;29;20485;-72
2020/12/05 11:05:17;;;;;;;4.68;3.03;;;2.60;99.90;;;;;;4879594;29;20041;-76
2020/12/05 11:07:42;;;;;;;4.40;3.22;;;2.60;99.90;;;;;;4879197;29;20037;-75
2020/12/05 11:10:08;;;;;;;5.85;3.40;;;2.50;99.90;;;;;;4879193;29;20037;-76
2020/12/05 11:12:34;;;;;;;10.00;3.88;;;2.50;99.90;;;;;;4879118;29;20076;-75
2020/12/05 11:15:00;;;;;;;4.60;3.17;;;2.50;99.90;;;;;;4879123;29;20104;-76
2020/12/05 11:17:26;;;;;;;5.22;3.60;;;2.50;99.90;;;;;;4878882;29;20402;-75
2020/12/05 11:19:51;;;;;;;4.25;3.10;;;2.40;99.90;;;;;;4878757;29;20053;-75
2020/12/05 11:22:17;;;;;;;5.18;3.63;;;2.40;99.90;;;;;;4878950;29;20033;-76
2020/12/05 11:24:43;;;;;;;3.88;3.05;;;2.40;99.90;;;;;;4878501;29;20048;-76
2020/12/05 11:27:08;;;;;;;7.43;3.60;;;2.40;99.90;;;;;;4879056;29;20025;-76
2020/12/05 11:29:34;;;;;;;9.43;2.63;;;2.40;99.90;;;;;;4878577;29;20508;-76
2020/12/05 11:32:00;;;;;;;3.75;2.75;;;2.50;99.90;;;;;;4878624;29;20029;-76
2020/12/05 11:34:26;;;;;;;4.88;2.53;;;2.40;99.90;;;;;;4878530;29;20032;-77
2020/12/05 11:36:52;;;;;;;4.70;2.92;;;2.40;99.90;;;;;;4878652;29;20089;-75
2020/12/05 11:39:18;;;;;;;5.65;2.75;;;2.40;99.90;;;;;;4878588;29;20681;-76
2020/12/05 11:41:43;;;;;;;3.92;2.60;;;2.40;99.90;;;;;;4878387;29;20066;-75
2020/12/05 11:44:09;;;;;;;4.57;3.13;;;2.50;99.90;;;;;;4878419;29;20508;-76
2020/12/05 11:46:35;;;;;;;7.95;2.97;;;2.50;99.90;;;;;;4877936;29;20088;-73
2020/12/05 11:49:00;;;;;;;3.92;2.92;;;2.50;99.90;;;;;;4878231;29;20061;-75
2020/12/05 11:51:27;;;;;;;4.43;2.70;;;2.50;99.90;;;;;;4877513;29;20033;-73
2020/12/05 11:53:53;;;;;;;5.13;3.03;;;2.50;99.90;;;;;;4877033;29;20033;-74
2020/12/05 11:56:21;;;;;;;4.65;3.35;;;2.80;99.90;;;;;;4875816;29;20036;-73
2020/12/05 11:58:46;;;;;;;5.65;2.83;;;3.00;99.90;;;;;;4878193;29;20719;-74
2020/12/05 12:01:12;;;;;;;4.78;2.55;;;2.90;99.90;;;;;;4878311;29;20085;-74
2020/12/05 12:03:38;;;;;;;3.85;2.70;;;2.80;99.90;;;;;;4878145;29;20067;-73
2020/12/05 12:06:03;;;;;;;4.68;3.35;;;2.70;99.90;;;;;;4878286;29;20032;-74
2020/12/05 12:08:29;;;;;;;8.82;2.78;;;2.60;99.90;;;;;;4878332;29;20068;-74
2020/12/05 12:10:55;;;;;;;5.72;3.53;;;2.60;99.90;;;;;;4878435;29;20025;-75
2020/12/05 12:13:21;;;;;;;3.65;2.80;;;2.90;99.90;;;;;;4876430;29;20077;-75
2020/12/05 12:15:46;;;;;;;5.72;3.03;;;2.80;99.90;;;;;;4884311;29;20374;-75
2020/12/05 12:18:12;;;;;;;9.52;3.42;;;2.70;99.90;;;;;;4881179;29;20033;-75
2020/12/05 12:20:38;;;;;;;6.85;3.40;;;2.60;99.90;;;;;;4881972;29;20096;-75
2020/12/05 12:23:03;;;;;;;6.80;3.75;;;2.70;99.90;;;;;;4881977;29;20059;-75
2020/12/05 12:25:29;;;;;;;6.75;3.42;;;2.60;99.90;;;;;;4882164;29;20030;-76
2020/12/05 12:27:55;;;;;;;5.47;3.08;;;3.20;99.90;;;;;;4881780;29;20131;-76
2020/12/05 12:30:21;;;;;;;5.78;3.63;;;3.20;99.90;;;;;;4881351;29;20461;-80
2020/12/05 12:32:46;;;;;;;4.05;2.97;;;3.10;99.90;;;;;;4881734;29;20065;-79
2020/12/05 12:35:12;;;;;;;4.85;3.42;;;2.90;99.90;;;;;;4882225;29;20031;-79
2020/12/05 12:37:38;;;;;;;4.80;3.13;;;2.80;99.90;;;;;;4881974;29;20053;-80
2020/12/05 12:40:04;;;;;;;6.28;4.07;;;2.70;99.90;;;;;;4881705;29;20036;-80
2020/12/05 12:42:31;;;;;;;6.90;3.53;;;2.70;99.90;;;;;;4880460;29;20448;-79
2020/12/05 12:44:57;;;;;;;7.63;3.95;;;2.70;99.90;;;;;;4881675;29;20404;-80
2020/12/05 12:49:58;;;;;;;9.30;4.57;;;2.60;99.90;;;;;;4881987;29;20029;-81
2020/12/05 12:52:24;;;;;;;8.80;4.57;;;2.60;99.90;;;;;;4881603;29;20027;-81
2020/12/05 12:54:50;;;;;;;7.55;4.55;;;2.60;99.90;;;;;;4881438;29;20033;-80
2020/12/05 12:57:16;;;;;;;9.50;4.70;;;2.70;99.90;;;;;;4881400;29;20037;-80
2020/12/05 12:59:42;;;;;;;7.40;4.43;;;2.70;99.90;;;;;;4881113;29;20489;-79
2020/12/05 13:02:08;;;;;;;8.93;4.63;;;2.60;99.90;;;;;;4880856;29;20067;-78
2020/12/05 13:04:33;;;;;;;8.95;4.45;;;2.70;99.90;;;;;;4881147;29;20041;-82
2020/12/05 13:06:59;;;;;;;6.78;4.25;;;2.70;99.90;;;;;;4881266;29;20021;-79
2020/12/05 13:09:26;;;;;;;8.05;4.90;;;2.70;99.90;;;;;;4880398;29;20025;-79
2020/12/05 13:11:52;;;;;;;8.15;4.57;;;2.70;99.90;;;;;;4871424;29;20036;-79
2020/12/05 13:14:19;;;;;;;11.98;4.38;;;2.60;99.90;;;;;;4880692;29;20037;-80
2020/12/05 13:16:45;;;;;;;7.28;4.55;;;2.70;99.90;;;;;;4895310;29;20025;-79
2020/12/05 13:19:11;;;;;;;8.73;4.43;;;2.60;99.90;;;;;;4880869;29;20053;-80
2020/12/05 13:21:36;;;;;;;8.35;4.30;;;2.60;99.90;;;;;;4880886;29;20044;-81
2020/12/05 13:24:03;;;;;;;7.47;4.53;;;2.70;99.90;;;;;;4880996;29;20123;-80
2020/12/05 13:26:29;;;;;;;8.13;4.15;;;2.70;99.90;;;;;;4880297;29;20053;-80
2020/12/05 13:28:55;;;;;;;8.30;4.15;;;2.70;99.90;;;;;;4878428;29;20063;-82
2020/12/05 13:31:27;;;;;;;6.60;3.90;;;2.70;99.90;;;;;;4880737;29;20044;-82
2020/12/05 13:33:52;;;;;;;6.35;4.40;;;2.70;99.90;;;;;;4880790;29;20473;-85
2020/12/05 13:36:18;;;;;;;8.18;4.65;;;2.70;99.90;;;;;;4880720;29;20037;-83
2020/12/05 13:38:44;;;;;;;8.13;4.30;;;2.70;99.90;;;;;;4894728;29;20041;-80
2020/12/05 13:41:10;;;;;;;6.63;4.60;;;2.70;99.90;;;;;;4880385;29;20048;-76
2020/12/05 13:43:36;;;;;;;9.55;4.93;;;2.70;99.90;;;;;;4880277;29;20039;-81
2020/12/05 13:46:02;;;;;;;7.15;4.45;;;2.90;99.90;;;;;;4880101;29;20021;-82
2020/12/05 13:48:27;;;;;;;6.38;4.78;;;2.90;99.90;;;;;;4880560;29;20202;-77
2020/12/05 13:50:53;;;;;;;9.93;5.55;;;2.80;99.90;;;;;;4880450;29;20077;-80
2020/12/05 13:53:19;;;;;;;6.28;4.63;;;2.70;99.90;;;;;;4880770;29;20021;-80
2020/12/05 13:55:44;;;;;;;10.45;5.32;;;2.70;99.90;;;;;;4880490;29;20029;-75
2020/12/05 13:58:10;;;;;;;9.85;4.70;;;2.70;99.90;;;;;;4880768;29;20117;-77
2020/12/05 14:00:36;;;;;;;9.20;5.18;;;2.70;99.90;;;;;;4880220;29;20466;-77
2020/12/05 14:03:01;;;;;;;9.77;5.07;;;2.70;99.90;;;;;;4880386;29;20085;-77
2020/12/05 14:05:27;;;;;;;11.32;5.55;;;2.70;99.90;;;;;;4880349;29;20033;-79
2020/12/05 14:07:53;;;;;;;8.13;4.90;;;2.70;99.90;;;;;;4879805;29;20085;-73
2020/12/05 14:10:19;;;;;;;11.80;5.40;;;2.60;99.90;;;;;;4879897;29;20033;-73
2020/12/05 14:12:44;;;;;;;8.02;5.15;;;2.60;99.90;;;;;;4880038;29;20049;-73
2020/12/05 14:15:10;;;;;;;15.82;5.40;;;2.60;99.90;;;;;;4880017;29;20033;-72
2020/12/05 14:17:36;;;;;;;9.18;5.43;;;2.60;99.90;;;;;;4879866;29;20469;-72
2020/12/05 14:20:03;;;;;;;7.40;5.05;;;2.70;99.90;;;;;;4879853;29;20185;-72
2020/12/05 14:22:29;;;;;;;12.07;5.35;;;2.60;99.90;;;;;;4880008;29;20029;-72
2020/12/05 14:24:54;;;;;;;10.65;5.05;;;2.70;99.90;;;;;;4880060;29;20037;-77
2020/12/05 14:27:20;;;;;;;13.15;5.28;;;2.70;99.90;;;;;;4879881;29;20029;-77
2020/12/05 14:29:46;;;;;;;6.65;4.57;;;2.70;99.90;;;;;;4879775;29;20029;-76
2020/12/05 14:32:12;;;;;;;9.02;5.03;;;2.80;99.90;;;;;;4879850;29;20027;-77
2020/12/05 14:34:38;;;;;;;16.02;5.47;;;2.80;99.90;;;;;;4879692;29;20025;-76
2020/12/05 14:37:03;;;;;;;9.88;5.28;;;2.90;99.90;;;;;;4877545;29;20025;-76
2020/12/05 14:39:29;;;;;;;9.15;5.28;;;2.90;99.90;;;;;;4879725;29;20089;-78
2020/12/05 14:41:55;;;;;;;12.48;5.45;;;2.90;99.90;;;;;;4893819;29;20029;-78
2020/12/05 14:44:20;;;;;;;10.35;5.78;;;2.90;99.90;;;;;;4879554;29;20041;-76
2020/12/05 14:46:46;;;;;;;20.13;5.60;;;2.90;99.90;;;;;;4879408;29;20021;-78
2020/12/05 14:49:13;;;;;;;11.82;5.35;;;2.90;99.90;;;;;;4879611;29;20033;-77
2020/12/05 14:51:43;;;;;;;7.93;4.60;;;3.00;99.90;;;;;;4879547;29;20492;-77
2020/12/05 14:54:10;;;;;;;12.80;5.57;;;3.00;99.90;;;;;;4879753;29;20085;-77
2020/12/05 14:56:36;;;;;;;11.88;5.00;;;3.00;99.90;;;;;;4879324;29;20025;-76
2020/12/05 14:59:01;;;;;;;8.75;4.97;;;3.00;99.90;;;;;;4879447;29;20052;-78
2020/12/05 15:01:27;;;;;;;9.15;4.50;;;3.00;99.90;;;;;;4879293;29;20100;-77
2020/12/05 15:03:53;;;;;;;8.88;5.18;;;3.00;99.90;;;;;;4878786;29;20042;-77
2020/12/05 15:06:19;;;;;;;8.98;5.05;;;3.10;99.90;;;;;;4879083;29;20025;-76
2020/12/05 15:08:45;;;;;;;13.43;5.15;;;3.00;99.90;;;;;;4893429;29;20029;-76
2020/12/05 15:11:10;;;;;;;9.27;5.22;;;3.10;99.90;;;;;;4879265;29;20489;-77
2020/12/05 15:13:36;;;;;;;10.07;4.68;;;3.10;99.90;;;;;;4879220;29;20029;-77
2020/12/05 15:16:03;;;;;;;9.00;4.90;;;3.10;99.90;;;;;;4879089;29;20037;-78
2020/12/05 15:18:29;;;;;;;6.97;4.53;;;3.10;99.90;;;;;;4879054;29;20092;-79
2020/12/05 15:20:59;;;;;;;13.50;4.90;;;3.10;99.90;;;;;;4878960;29;20471;-77
2020/12/05 15:23:25;;;;;;;;;;;3.10;99.90;;;;;;4879472;29;20033;-75
2020/12/05 15:25:53;;;;;;;6.55;4.80;;;3.20;99.90;;;;;;4879052;29;19923;-77
2020/12/05 15:28:19;;;;;;;10.30;5.63;;;3.20;99.90;;;;;;4878973;29;20488;-77
2020/12/05 15:30:46;;;;;;;8.25;4.70;;;3.20;99.90;;;;;;4878697;29;20138;-76
2020/12/05 15:33:13;;;;;;;8.38;5.40;;;3.30;99.90;;;;;;4878814;29;20397;-75
2020/12/05 15:35:40;;;;;;;9.60;5.82;;;3.30;99.90;;;;;;4878688;29;20052;-75
2020/12/05 15:38:06;;;;;;;10.88;5.45;;;3.30;99.90;;;;;;4878961;29;20056;-74
2020/12/05 15:40:32;;;;;;;7.78;5.18;;;3.30;99.90;;;;;;4878852;29;20056;-75
2020/12/05 15:42:57;;;;;;;9.75;6.00;;;3.40;99.90;;;;;;4878668;29;20516;-75
2020/12/05 15:45:23;;;;;;;9.98;5.60;;;3.40;99.90;;;;;;4878223;29;20477;-75
2020/12/05 15:47:49;;;;;;;13.70;5.07;;;3.40;99.90;;;;;;4878273;29;20104;-74
2020/12/05 15:50:15;;;;;;;9.18;5.65;;;3.40;99.90;;;;;;4878530;29;20041;-76
2020/12/05 15:52:42;;;;;;;10.82;5.75;;;3.40;99.90;;;;;;4878630;29;20440;-76
2020/12/05 15:55:08;;;;;;;9.88;5.97;;;3.40;99.90;;;;;;4878409;29;20039;-77
2020/12/05 15:57:34;;;;;;;8.23;5.03;;;3.40;99.90;;;;;;4878346;29;20029;-77
2020/12/05 16:00:00;;;;;;;10.05;5.22;;;3.40;99.90;;;;;;4877422;29;20029;-76
2020/12/05 16:02:25;;;;;;;14.30;5.50;;;3.40;99.90;;;;;;4878081;29;20541;-77
2020/12/05 16:04:52;;;;;;;9.55;5.80;;;3.40;99.90;;;;;;4878173;29;20116;-75
2020/12/05 16:07:18;;;;;;;9.63;6.05;;;3.50;99.90;;;;;;4878496;29;20417;-76
2020/12/05 16:09:44;;;;;;;36.50;19.60;;;3.50;99.90;;;;;;4878239;29;20070;-75
2020/12/05 16:12:14;;;;;;;62.20;32.75;;;3.50;99.90;;;;;;4878148;29;20033;-74
2020/12/05 16:14:41;;;;;;;95.80;48.13;;;3.40;99.90;;;;;;4878145;29;20029;-75
2020/12/05 16:17:07;;;;;;;64.75;34.38;;;3.40;99.90;;;;;;4878161;29;20089;-74
2020/12/05 16:19:33;;;;;;;38.38;21.90;;;3.50;99.90;;;;;;4878058;29;20094;-74
2020/12/05 16:21:59;;;;;;;16.95;7.75;;;3.40;99.90;;;;;;4878019;29;20057;-75
2020/12/05 16:24:26;;;;;;;23.90;8.73;;;3.50;99.90;;;;;;4878442;29;20044;-75
2020/12/05 16:26:53;;;;;;;16.58;9.07;;;3.50;99.90;;;;;;4878012;29;20045;-74
2020/12/05 16:29:18;;;;;;;23.08;12.13;;;3.60;99.90;;;;;;4878450;29;20041;-75
2020/12/05 16:31:44;;;;;;;14.95;8.23;;;3.60;99.90;;;;;;4878023;29;20362;-75
2020/12/05 16:34:10;;;;;;;9.38;6.22;;;3.60;99.90;;;;;;4878168;29;20029;-75
2020/12/05 16:36:36;;;;;;;9.82;6.03;;;3.60;99.90;;;;;;4878248;29;20033;-75
2020/12/05 16:39:03;;;;;;;13.40;5.90;;;3.60;99.90;;;;;;4877771;29;20029;-71
2020/12/05 16:41:29;;;;;;;10.88;6.25;;;3.60;99.90;;;;;;4878337;29;20112;-74
2020/12/05 16:43:55;;;;;;;12.38;6.25;;;3.60;99.90;;;;;;4877929;29;20053;-76
2020/12/05 16:46:22;;;;;;;11.75;6.93;;;3.60;99.90;;;;;;4878108;29;20037;-76
2020/12/05 16:48:48;;;;;;;12.20;7.03;;;3.60;99.90;;;;;;4877722;29;20036;-77
2020/12/05 16:51:14;;;;;;;16.38;7.20;;;3.60;99.90;;;;;;4877802;29;20468;-77
2020/12/05 16:53:40;;;;;;;15.07;6.55;;;3.60;99.90;;;;;;4878185;29;20117;-75
2020/12/05 16:56:06;;;;;;;9.70;5.60;;;3.60;99.90;;;;;;4876533;29;20493;-74
2020/12/05 16:58:32;;;;;;;12.07;5.97;;;3.90;99.90;;;;;;4878043;29;20120;-73
2020/12/05 17:00:58;;;;;;;11.75;5.85;;;4.20;99.90;;;;;;4879260;29;20232;-73
2020/12/05 17:03:24;;;;;;;11.93;5.80;;;4.10;99.90;;;;;;4881337;29;20085;-74
2020/12/05 17:05:50;;;;;;;18.70;6.38;;;4.00;99.90;;;;;;4881188;29;20036;-74
2020/12/05 17:08:16;;;;;;;12.57;6.25;;;4.00;99.90;;;;;;4881305;29;20084;-74
2020/12/05 17:10:43;;;;;;;11.95;6.15;;;3.90;99.90;;;;;;4881237;29;20032;-74
2020/12/05 17:13:08;;;;;;;13.82;5.95;;;3.90;99.90;;;;;;4880008;29;20085;-74
2020/12/05 17:15:34;;;;;;;12.32;6.22;;;3.90;99.90;;;;;;4881159;29;20029;-74
2020/12/05 17:18:00;;;;;;;13.52;5.93;;;3.90;99.90;;;;;;4895365;29;20477;-74
2020/12/05 17:20:26;;;;;;;20.00;6.07;;;3.90;99.90;;;;;;4880943;29;20057;-74
2020/12/05 17:22:51;;;;;;;12.88;5.75;;;3.90;99.90;;;;;;4881084;29;20029;-73
2020/12/05 17:25:17;;;;;;;15.57;6.05;;;3.80;99.90;;;;;;4895382;29;20037;-73
2020/12/05 17:27:43;;;;;;;14.32;6.10;;;3.80;99.90;;;;;;4880921;29;20024;-73
2020/12/05 17:30:10;;;;;;;14.98;6.60;;;3.80;99.90;;;;;;4880903;29;20041;-73
2020/12/05 17:32:36;;;;;;;10.43;5.88;;;3.80;99.90;;;;;;4880800;29;20033;-72
2020/12/05 17:35:02;;;;;;;16.75;7.10;;;3.80;99.90;;;;;;4880691;29;20116;-76
2020/12/05 17:37:28;;;;;;;11.65;5.07;;;4.50;99.90;;;;;;4880748;29;20029;-76
2020/12/05 17:39:54;;;;;;;8.48;5.40;;;4.50;99.90;;;;;;4880935;29;20461;-76
2020/12/05 17:42:23;;;;;;;8.25;4.72;;;4.30;99.90;;;;;;4880811;29;20100;-76
2020/12/05 17:44:50;;;;;;;9.50;4.97;;;4.20;99.90;;;;;;4880565;29;20537;-75
2020/12/05 17:47:18;;;;;;;9.02;5.43;;;4.10;99.90;;;;;;4879290;29;20025;-77
2020/12/05 17:49:45;;;;;;;15.90;5.70;;;4.10;99.90;;;;;;4880607;29;20029;-78
2020/12/05 17:52:11;;;;;;;10.65;6.20;;;4.10;99.90;;;;;;4880483;29;20028;-78
2020/12/05 17:54:37;;;;;;;20.17;8.07;;;4.10;99.90;;;;;;4875851;29;20037;-81
2020/12/05 17:57:05;;;;;;;15.30;6.93;;;4.00;99.90;;;;;;4868644;29;20538;-85
2020/12/05 17:59:31;;;;;;;10.45;6.45;;;4.10;99.90;;;;;;4876257;29;20057;-79
2020/12/05 18:01:57;;;;;;;9.30;5.70;;;4.00;99.90;;;;;;4879693;29;20536;-78
2020/12/05 18:04:24;;;;;;;7.35;5.05;;;4.10;99.90;;;;;;4880271;29;20053;-79
2020/12/05 18:06:54;;;;;;;19.35;5.10;;;4.10;99.90;;;;;;4894030;29;20061;-80
2020/12/05 18:09:20;;;;;;;9.75;4.55;;;4.10;99.90;;;;;;4894378;29;20029;-78
2020/12/05 18:11:58;;;;;;;7.85;5.03;;;4.10;99.90;;;;;;4879803;29;20048;-77
2020/12/05 18:14:24;;;;;;;14.95;4.38;;;4.00;99.90;;;;;;4868432;29;20033;-78
2020/12/05 18:16:52;;;;;;;19.13;4.72;;;4.10;99.90;;;;;;4879751;29;20556;-78
2020/12/05 18:19:20;;;;;;;12.13;4.97;;;4.10;99.90;;;;;;4875153;29;20068;-80